Main page
METAR-TAF:

METAR-TAF

Airports :

Dortmund, Germany

Dortmund Airport

latitude: 51-31N, longitude: 007-37E, elevation: 127 m

Current weather observation

The report was made 55 minutes ago, at 19:50 UTC
Wind 7 kt from the West/Southwest
Temperature 19°C
Humidity 60%
Pressure 1015 hPa
Visibility 10 km or more
no clouds below 1500 m and no cumulonimbus

METAR: EDLW 231950Z 25007KT CAVOK 19/11 Q1015

Time: 22:45 (20:45 UTC)

Forecast

The report was made 3 hours and 45 minutes ago, at 17:00 UTC
Forecast valid from 23 at 18 UTC to 24 at 18 UTC
Wind 8 kt from the West/Southwest
Visibility 10 km or more
no clouds below 1500 m and no cumulonimbus
Becoming
from 24 at 03 UTC to 24 at 05 UTC
Wind 13 kt from the Southwest
Temporary
from 24 at 08 UTC to 24 at 16 UTC
Wind 15 kt from the West/Southwest with gusts up to 25 kt

TAF: EDLW 231700Z 2318/2418 24008KT CAVOK BECMG 2403/2405 23013KT TEMPO 2408/2416 24015G25KT

Weather observations and forecasts of more than 4000 airports (METAR and TAF reports).

The available stations are represented by yellow and red dots on the map.

Hover mouse over dot to see the name of the station.

Then click to see weather observations and forecasts.

To change the map : click on the green buttons with a black cross to zoom in, on the green button with a dash to zoom out, or on the green arrows for adjacent maps.


METAR-TAF: